sensor_id;sensor_type;location;lat;lon;timestamp;temperature;humidity
2300;DHT22;1158;48.750;9.078;2023-04-15T00:00:37;-0.10;99.90
2300;DHT22;1158;48.750;9.078;2023-04-15T00:03:03;-0.20;99.90
2300;DHT22;1158;48.750;9.078;2023-04-15T00:05:30;-0.30;99.90
2300;DHT22;1158;48.750;9.078;2023-04-15T00:07:58;-0.30;99.90
2300;DHT22;1158;48.750;9.078;2023-04-15T00:10:27;-0.40;99.90
2300;DHT22;1158;48.750;9.078;2023-04-15T00:12:54;-0.30;99.90
2300;DHT22;1158;48.750;9.078;2023-04-15T00:15:20;-0.30;99.90
2300;DHT22;1158;48.750;9.078;2023-04-15T00:17:49;-0.30;99.90
2300;DHT22;1158;48.750;9.078;2023-04-15T00:20:16;-0.30;99.90
2300;DHT22;1158;48.750;9.078;2023-04-15T00:22:43;-0.40;99.90
2300;DHT22;1158;48.750;9.078;2023-04-15T00:25:09;-0.40;99.90
2300;DHT22;1158;48.750;9.078;2023-04-15T00:27:37;-0.50;99.90
2300;DHT22;1158;48.750;9.078;2023-04-15T00:30:06;-0.50;99.90
2300;DHT22;1158;48.750;9.078;2023-04-15T00:32:33;-0.50;99.90
2300;DHT22;1158;48.750;9.078;2023-04-15T00:34:59;-0.50;99.90
2300;DHT22;1158;48.750;9.078;2023-04-15T00:37:26;-0.40;99.90
2300;DHT22;1158;48.750;9.078;2023-04-15T00:39:53;-0.50;99.90
2300;DHT22;1158;48.750;9.078;2023-04-15T00:42:20;-0.40;99.90
2300;DHT22;1158;48.750;9.078;2023-04-15T00:44:48;-0.50;99.90
2300;DHT22;1158;48.750;9.078;2023-04-15T00:47:15;-0.50;99.90
2300;DHT22;1158;48.750;9.078;2023-04-15T00:49:42;-0.60;99.90
2300;DHT22;1158;48.750;9.078;2023-04-15T00:52:09;-0.60;99.90
2300;DHT22;1158;48.750;9.078;2023-04-15T00:54:36;-0.60;99.90
2300;DHT22;1158;48.750;9.078;2023-04-15T00:57:04;-0.60;99.90
2300;DHT22;1158;48.750;9.078;2023-04-15T00:59:32;-0.70;99.90
2300;DHT22;1158;48.750;9.078;2023-04-15T01:02:00;-0.80;99.90
2300;DHT22;1158;48.750;9.078;2023-04-15T01:04:27;-0.80;99.90
2300;DHT22;1158;48.750;9.078;2023-04-15T01:06:54;-0.70;99.90
2300;DHT22;1158;48.750;9.078;2023-04-15T01:09:21;-0.70;99.90
2300;DHT22;1158;48.750;9.078;2023-04-15T01:11:49;-0.80;99.90
2300;DHT22;1158;48.750;9.078;2023-04-15T01:14:16;-0.80;99.90
2300;DHT22;1158;48.750;9.078;2023-04-15T01:16:43;-0.80;99.90
2300;DHT22;1158;48.750;9.078;2023-04-15T01:19:13;-0.80;99.90
2300;DHT22;1158;48.750;9.078;2023-04-15T01:21:42;-0.90;99.90
2300;DHT22;1158;48.750;9.078;2023-04-15T01:24:09;-0.90;99.90
2300;DHT22;1158;48.750;9.078;2023-04-15T01:26:38;-1.00;99.90
2300;DHT22;1158;48.750;9.078;2023-04-15T01:29:05;-1.00;99.90
2300;DHT22;1158;48.750;9.078;2023-04-15T01:31:32;-1.00;99.90
2300;DHT22;1158;48.750;9.078;2023-04-15T01:34:00;-0.90;99.90
2300;DHT22;1158;48.750;9.078;2023-04-15T01:36:27;-0.90;99.90
2300;DHT22;1158;48.750;9.078;2023-04-15T01:38:55;-0.90;99.90
2300;DHT22;1158;48.750;9.078;2023-04-15T01:41:24;-0.90;99.90
2300;DHT22;1158;48.750;9.078;2023-04-15T01:43:52;-0.90;99.90
2300;DHT22;1158;48.750;9.078;2023-04-15T01:46:19;-0.90;99.90
2300;DHT22;1158;48.750;9.078;2023-04-15T01:48:46;-0.90;99.90
2300;DHT22;1158;48.750;9.078;2023-04-15T01:51:12;-1.00;99.90
2300;DHT22;1158;48.750;9.078;2023-04-15T01:53:39;-1.00;99.90
2300;DHT22;1158;48.750;9.078;2023-04-15T01:56:06;-1.10;99.90
2300;DHT22;1158;48.750;9.078;2023-04-15T01:58:33;-1.10;99.90
2300;DHT22;1158;48.750;9.078;2023-04-15T02:01:01;-1.20;99.90
2300;DHT22;1158;48.750;9.078;2023-04-15T02:03:28;-1.10;99.90
2300;DHT22;1158;48.750;9.078;2023-04-15T02:05:55;-1.10;99.90
2300;DHT22;1158;48.750;9.078;2023-04-15T02:08:22;-1.10;99.90
2300;DHT22;1158;48.750;9.078;2023-04-15T02:10:48;-1.10;99.90
2300;DHT22;1158;48.750;9.078;2023-04-15T02:13:15;-1.10;99.90
2300;DHT22;1158;48.750;9.078;2023-04-15T02:15:46;-1.20;99.90
2300;DHT22;1158;48.750;9.078;2023-04-15T02:18:14;-1.20;99.90
2300;DHT22;1158;48.750;9.078;2023-04-15T02:20:41;-1.20;99.90
2300;DHT22;1158;48.750;9.078;2023-04-15T02:23:08;-1.20;99.90
2300;DHT22;1158;48.750;9.078;2023-04-15T02:25:35;-1.20;99.90
2300;DHT22;1158;48.750;9.078;2023-04-15T02:28:03;-1.20;99.90
2300;DHT22;1158;48.750;9.078;2023-04-15T02:30:30;-1.30;99.90
2300;DHT22;1158;48.750;9.078;2023-04-15T02:32:57;-1.30;99.90
2300;DHT22;1158;48.750;9.078;2023-04-15T02:35:25;-1.30;99.90
2300;DHT22;1158;48.750;9.078;2023-04-15T02:37:52;-1.30;99.90
2300;DHT22;1158;48.750;9.078;2023-04-15T02:40:19;-1.20;99.90
2300;DHT22;1158;48.750;9.078;2023-04-15T02:42:46;-1.30;99.90
2300;DHT22;1158;48.750;9.078;2023-04-15T02:45:13;-1.30;99.90
2300;DHT22;1158;48.750;9.078;2023-04-15T02:47:40;-1.30;99.90
2300;DHT22;1158;48.750;9.078;2023-04-15T02:50:09;-1.30;99.90
2300;DHT22;1158;48.750;9.078;2023-04-15T02:52:39;-1.30;99.90
2300;DHT22;1158;48.750;9.078;2023-04-15T02:55:07;-1.30;99.90
2300;DHT22;1158;48.750;9.078;2023-04-15T02:57:34;-1.30;99.90
2300;DHT22;1158;48.750;9.078;2023-04-15T03:00:04;-1.30;99.90
2300;DHT22;1158;48.750;9.078;2023-04-15T03:02:33;-1.40;99.90
2300;DHT22;1158;48.750;9.078;2023-04-15T03:04:59;-1.40;99.90
2300;DHT22;1158;48.750;9.078;2023-04-15T03:07:26;-1.50;99.90
2300;DHT22;1158;48.750;9.078;2023-04-15T03:09:54;-1.50;99.90
2300;DHT22;1158;48.750;9.078;2023-04-15T03:12:21;-1.40;99.90
2300;DHT22;1158;48.750;9.078;2023-04-15T03:14:48;-1.40;99.90
2300;DHT22;1158;48.750;9.078;2023-04-15T03:17:14;-1.40;99.90
2300;DHT22;1158;48.750;9.078;2023-04-15T03:19:42;-1.40;99.90
2300;DHT22;1158;48.750;9.078;2023-04-15T03:22:09;-1.40;99.90
2300;DHT22;1158;48.750;9.078;2023-04-15T03:24:36;-1.30;99.90
2300;DHT22;1158;48.750;9.078;2023-04-15T03:27:04;-1.30;99.90
2300;DHT22;1158;48.750;9.078;2023-04-15T03:29:32;-1.40;99.90
2300;DHT22;1158;48.750;9.078;2023-04-15T03:31:59;-1.40;99.90
2300;DHT22;1158;48.750;9.078;2023-04-15T03:34:26;-1.40;99.90
2300;DHT22;1158;48.750;9.078;2023-04-15T03:36:52;-1.40;99.90
2300;DHT22;1158;48.750;9.078;2023-04-15T03:39:19;-1.30;99.90
2300;DHT22;1158;48.750;9.078;2023-04-15T03:41:46;-1.40;99.90
2300;DHT22;1158;48.750;9.078;2023-04-15T03:44:14;-1.40;99.90
2300;DHT22;1158;48.750;9.078;2023-04-15T03:46:41;-1.30;99.90
2300;DHT22;1158;48.750;9.078;2023-04-15T03:49:07;-1.40;99.90
2300;DHT22;1158;48.750;9.078;2023-04-15T03:51:34;-1.40;99.90
2300;DHT22;1158;48.750;9.078;2023-04-15T03:54:01;-1.40;99.90
2300;DHT22;1158;48.750;9.078;2023-04-15T03:56:28;-1.40;99.90
2300;DHT22;1158;48.750;9.078;2023-04-15T03:58:55;-1.40;99.90
2300;DHT22;1158;48.750;9.078;2023-04-15T04:01:23;-1.40;99.90
2300;DHT22;1158;48.750;9.078;2023-04-15T04:03:49;-1.50;99.90
2300;DHT22;1158;48.750;9.078;2023-04-15T04:06:16;-1.50;99.90
2300;DHT22;1158;48.750;9.078;2023-04-15T04:08:43;-1.50;99.90
2300;DHT22;1158;48.750;9.078;2023-04-15T04:11:10;-1.50;99.90
2300;DHT22;1158;48.750;9.078;2023-04-15T04:13:37;-1.50;99.90
2300;DHT22;1158;48.750;9.078;2023-04-15T04:16:04;-1.50;99.90
2300;DHT22;1158;48.750;9.078;2023-04-15T04:18:32;-1.40;99.90
2300;DHT22;1158;48.750;9.078;2023-04-15T04:20:59;-1.40;99.90
2300;DHT22;1158;48.750;9.078;2023-04-15T04:23:26;-1.30;99.90
2300;DHT22;1158;48.750;9.078;2023-04-15T04:25:53;-1.30;99.90
2300;DHT22;1158;48.750;9.078;2023-04-15T04:28:19;-1.30;99.90
2300;DHT22;1158;48.750;9.078;2023-04-15T04:30:46;-1.40;99.90
2300;DHT22;1158;48.750;9.078;2023-04-15T04:33:13;-1.40;99.90
2300;DHT22;1158;48.750;9.078;2023-04-15T04:35:41;-1.40;99.90
2300;DHT22;1158;48.750;9.078;2023-04-15T04:38:08;-1.40;99.90
2300;DHT22;1158;48.750;9.078;2023-04-15T04:40:35;-1.50;99.90
2300;DHT22;1158;48.750;9.078;2023-04-15T04:43:01;-1.50;99.90
2300;DHT22;1158;48.750;9.078;2023-04-15T04:45:28;-1.50;99.90
2300;DHT22;1158;48.750;9.078;2023-04-15T04:47:55;-1.50;99.90
2300;DHT22;1158;48.750;9.078;2023-04-15T04:50:21;-1.50;99.90
2300;DHT22;1158;48.750;9.078;2023-04-15T04:52:49;-1.50;99.90
2300;DHT22;1158;48.750;9.078;2023-04-15T04:55:16;-1.40;99.90
2300;DHT22;1158;48.750;9.078;2023-04-15T04:57:43;-1.40;99.90
2300;DHT22;1158;48.750;9.078;2023-04-15T05:00:10;-1.30;99.90
2300;DHT22;1158;48.750;9.078;2023-04-15T05:02:38;-1.30;99.90
2300;DHT22;1158;48.750;9.078;2023-04-15T05:05:06;-1.20;99.90
2300;DHT22;1158;48.750;9.078;2023-04-15T05:07:33;-1.20;99.90
2300;DHT22;1158;48.750;9.078;2023-04-15T05:10:02;-1.10;99.90
2300;DHT22;1158;48.750;9.078;2023-04-15T05:12:29;-1.10;99.90
2300;DHT22;1158;48.750;9.078;2023-04-15T05:14:57;-1.00;99.90
2300;DHT22;1158;48.750;9.078;2023-04-15T05:17:24;-1.00;99.90
2300;DHT22;1158;48.750;9.078;2023-04-15T05:19:51;-0.90;99.90
2300;DHT22;1158;48.750;9.078;2023-04-15T05:22:18;-0.80;99.90
2300;DHT22;1158;48.750;9.078;2023-04-15T05:24:44;-0.60;99.90
2300;DHT22;1158;48.750;9.078;2023-04-15T05:27:12;-0.40;99.90
2300;DHT22;1158;48.750;9.078;2023-04-15T05:29:40;0.50;99.90
2300;DHT22;1158;48.750;9.078;2023-04-15T05:32:07;1.30;99.90
2300;DHT22;1158;48.750;9.078;2023-04-15T05:34:33;1.90;99.90
2300;DHT22;1158;48.750;9.078;2023-04-15T05:37:00;2.80;99.90
2300;DHT22;1158;48.750;9.078;2023-04-15T05:39:27;3.70;99.90
2300;DHT22;1158;48.750;9.078;2023-04-15T05:41:53;4.90;99.90
2300;DHT22;1158;48.750;9.078;2023-04-15T05:44:21;5.80;99.90
2300;DHT22;1158;48.750;9.078;2023-04-15T05:46:48;6.30;99.90
2300;DHT22;1158;48.750;9.078;2023-04-15T05:49:15;6.30;99.90
2300;DHT22;1158;48.750;9.078;2023-04-15T05:51:41;6.50;99.90
2300;DHT22;1158;48.750;9.078;2023-04-15T05:54:08;7.30;99.90
2300;DHT22;1158;48.750;9.078;2023-04-15T05:56:35;7.80;99.90
2300;DHT22;1158;48.750;9.078;2023-04-15T05:59:01;8.10;99.90
2300;DHT22;1158;48.750;9.078;2023-04-15T06:01:29;8.20;99.90
2300;DHT22;1158;48.750;9.078;2023-04-15T06:03:56;8.30;99.90
2300;DHT22;1158;48.750;9.078;2023-04-15T06:06:23;8.40;99.90
2300;DHT22;1158;48.750;9.078;2023-04-15T06:08:49;8.10;99.90
2300;DHT22;1158;48.750;9.078;2023-04-15T06:11:16;7.30;99.90
2300;DHT22;1158;48.750;9.078;2023-04-15T06:13:43;6.70;99.90
2300;DHT22;1158;48.750;9.078;2023-04-15T06:16:09;6.90;99.90
2300;DHT22;1158;48.750;9.078;2023-04-15T06:18:37;6.80;99.90
2300;DHT22;1158;48.750;9.078;2023-04-15T06:21:04;7.30;99.90
2300;DHT22;1158;48.750;9.078;2023-04-15T06:23:33;7.80;99.90
2300;DHT22;1158;48.750;9.078;2023-04-15T06:26:00;8.50;99.90
2300;DHT22;1158;48.750;9.078;2023-04-15T06:28:27;9.50;99.90
2300;DHT22;1158;48.750;9.078;2023-04-15T06:30:54;10.10;99.90
2300;DHT22;1158;48.750;9.078;2023-04-15T06:33:21;10.60;99.90
2300;DHT22;1158;48.750;9.078;2023-04-15T06:35:49;11.50;99.90
2300;DHT22;1158;48.750;9.078;2023-04-15T06:38:15;12.40;99.90
2300;DHT22;1158;48.750;9.078;2023-04-15T06:40:42;12.70;99.90
2300;DHT22;1158;48.750;9.078;2023-04-15T06:43:09;12.90;99.90
2300;DHT22;1158;48.750;9.078;2023-04-15T06:45:35;13.10;99.70
2300;DHT22;1158;48.750;9.078;2023-04-15T06:48:02;13.50;98.80
2300;DHT22;1158;48.750;9.078;2023-04-15T06:50:29;14.00;98.10
2300;DHT22;1158;48.750;9.078;2023-04-15T06:52:58;13.70;98.10
2300;DHT22;1158;48.750;9.078;2023-04-15T06:55:25;14.10;98.40
2300;DHT22;1158;48.750;9.078;2023-04-15T06:57:51;14.00;98.30
2300;DHT22;1158;48.750;9.078;2023-04-15T07:00:18;13.90;98.00
2300;DHT22;1158;48.750;9.078;2023-04-15T07:02:45;14.40;97.80
2300;DHT22;1158;48.750;9.078;2023-04-15T07:05:12;14.60;97.70
2300;DHT22;1158;48.750;9.078;2023-04-15T07:07:39;14.60;97.00
2300;DHT22;1158;48.750;9.078;2023-04-15T07:10:08;14.80;96.90
2300;DHT22;1158;48.750;9.078;2023-04-15T07:12:36;14.90;98.30
2300;DHT22;1158;48.750;9.078;2023-04-15T07:15:06;16.40;96.90
2300;DHT22;1158;48.750;9.078;2023-04-15T07:17:33;16.00;94.70
2300;DHT22;1158;48.750;9.078;2023-04-15T07:19:59;16.20;93.50
2300;DHT22;1158;48.750;9.078;2023-04-15T07:22:26;16.70;92.40
2300;DHT22;1158;48.750;9.078;2023-04-15T07:24:53;17.00;90.90
2300;DHT22;1158;48.750;9.078;2023-04-15T07:27:21;17.10;90.20
2300;DHT22;1158;48.750;9.078;2023-04-15T07:29:48;17.50;88.30
2300;DHT22;1158;48.750;9.078;2023-04-15T07:32:16;17.40;89.30
2300;DHT22;1158;48.750;9.078;2023-04-15T07:34:43;17.10;89.20
2300;DHT22;1158;48.750;9.078;2023-04-15T07:37:10;17.10;91.00
2300;DHT22;1158;48.750;9.078;2023-04-15T07:39:37;16.40;90.40
2300;DHT22;1158;48.750;9.078;2023-04-15T07:42:03;16.60;87.30
2300;DHT22;1158;48.750;9.078;2023-04-15T07:44:31;15.90;86.70
2300;DHT22;1158;48.750;9.078;2023-04-15T07:46:58;16.20;86.30
2300;DHT22;1158;48.750;9.078;2023-04-15T07:49:25;16.60;83.60
2300;DHT22;1158;48.750;9.078;2023-04-15T07:51:51;18.30;81.20
2300;DHT22;1158;48.750;9.078;2023-04-15T07:54:18;19.20;79.10
2300;DHT22;1158;48.750;9.078;2023-04-15T07:56:45;19.80;75.30
2300;DHT22;1158;48.750;9.078;2023-04-15T07:59:12;21.20;72.50
2300;DHT22;1158;48.750;9.078;2023-04-15T08:01:43;20.40;72.40
2300;DHT22;1158;48.750;9.078;2023-04-15T08:04:10;19.10;73.60
2300;DHT22;1158;48.750;9.078;2023-04-15T08:06:36;18.90;74.00
2300;DHT22;1158;48.750;9.078;2023-04-15T08:09:04;18.20;74.80
2300;DHT22;1158;48.750;9.078;2023-04-15T08:11:31;17.80;74.70
2300;DHT22;1158;48.750;9.078;2023-04-15T08:13:58;17.50;76.60
2300;DHT22;1158;48.750;9.078;2023-04-15T08:16:25;16.80;77.30
2300;DHT22;1158;48.750;9.078;2023-04-15T08:18:54;16.10;76.60
2300;DHT22;1158;48.750;9.078;2023-04-15T08:21:22;15.00;79.60
2300;DHT22;1158;48.750;9.078;2023-04-15T08:23:51;15.10;81.40
2300;DHT22;1158;48.750;9.078;2023-04-15T08:26:18;14.70;80.10
2300;DHT22;1158;48.750;9.078;2023-04-15T08:28:45;14.80;80.50
2300;DHT22;1158;48.750;9.078;2023-04-15T08:31:13;15.20;78.90
2300;DHT22;1158;48.750;9.078;2023-04-15T08:33:40;15.60;79.20
2300;DHT22;1158;48.750;9.078;2023-04-15T08:36:08;16.30;76.80
2300;DHT22;1158;48.750;9.078;2023-04-15T08:38:36;15.30;78.90
2300;DHT22;1158;48.750;9.078;2023-04-15T08:41:06;15.40;79.00
2300;DHT22;1158;48.750;9.078;2023-04-15T08:43:34;15.90;77.40
2300;DHT22;1158;48.750;9.078;2023-04-15T08:46:01;16.70;77.90
2300;DHT22;1158;48.750;9.078;2023-04-15T08:48:32;16.40;75.70
2300;DHT22;1158;48.750;9.078;2023-04-15T08:51:00;16.90;78.10
2300;DHT22;1158;48.750;9.078;2023-04-15T08:53:29;17.10;75.20
2300;DHT22;1158;48.750;9.078;2023-04-15T08:56:09;17.70;77.60
2300;DHT22;1158;48.750;9.078;2023-04-15T08:58:37;17.90;74.20
2300;DHT22;1158;48.750;9.078;2023-04-15T09:01:04;17.80;75.40
2300;DHT22;1158;48.750;9.078;2023-04-15T09:03:31;17.90;75.60
2300;DHT22;1158;48.750;9.078;2023-04-15T09:05:58;18.20;72.80
2300;DHT22;1158;48.750;9.078;2023-04-15T09:08:32;17.00;76.40
2300;DHT22;1158;48.750;9.078;2023-04-15T09:11:02;16.80;76.50
2300;DHT22;1158;48.750;9.078;2023-04-15T09:13:29;16.10;77.40
2300;DHT22;1158;48.750;9.078;2023-04-15T09:15:56;15.50;78.20
2300;DHT22;1158;48.750;9.078;2023-04-15T09:18:27;15.60;78.60
2300;DHT22;1158;48.750;9.078;2023-04-15T09:20:55;15.50;78.50
2300;DHT22;1158;48.750;9.078;2023-04-15T09:23:22;15.70;81.90
2300;DHT22;1158;48.750;9.078;2023-04-15T09:25:50;16.50;79.50
2300;DHT22;1158;48.750;9.078;2023-04-15T09:28:23;17.20;78.50
2300;DHT22;1158;48.750;9.078;2023-04-15T09:30:54;17.40;79.00
2300;DHT22;1158;48.750;9.078;2023-04-15T09:33:20;18.30;77.60
2300;DHT22;1158;48.750;9.078;2023-04-15T09:35:56;18.70;76.60
2300;DHT22;1158;48.750;9.078;2023-04-15T09:38:23;18.80;76.40
2300;DHT22;1158;48.750;9.078;2023-04-15T09:40:52;18.00;74.70
2300;DHT22;1158;48.750;9.078;2023-04-15T09:43:18;17.80;78.10
2300;DHT22;1158;48.750;9.078;2023-04-15T09:45:50;17.80;75.90
2300;DHT22;1158;48.750;9.078;2023-04-15T09:48:18;17.50;76.70
2300;DHT22;1158;48.750;9.078;2023-04-15T09:50:46;17.80;75.40
2300;DHT22;1158;48.750;9.078;2023-04-15T09:53:18;18.30;76.00
2300;DHT22;1158;48.750;9.078;2023-04-15T09:55:45;18.80;75.20
2300;DHT22;1158;48.750;9.078;2023-04-15T09:58:21;18.50;76.00
2300;DHT22;1158;48.750;9.078;2023-04-15T10:00:50;18.80;75.80
2300;DHT22;1158;48.750;9.078;2023-04-15T10:03:19;18.10;76.90
2300;DHT22;1158;48.750;9.078;2023-04-15T10:05:47;18.30;76.20
2300;DHT22;1158;48.750;9.078;2023-04-15T10:08:16;17.60;76.20
2300;DHT22;1158;48.750;9.078;2023-04-15T10:10:44;17.10;73.70
2300;DHT22;1158;48.750;9.078;2023-04-15T10:13:12;17.00;74.80
2300;DHT22;1158;48.750;9.078;2023-04-15T10:15:42;16.50;77.20
2300;DHT22;1158;48.750;9.078;2023-04-15T10:18:10;15.90;76.70
2300;DHT22;1158;48.750;9.078;2023-04-15T10:20:39;15.80;79.30
2300;DHT22;1158;48.750;9.078;2023-04-15T10:23:06;15.20;76.30
2300;DHT22;1158;48.750;9.078;2023-04-15T10:25:34;15.20;77.40
2300;DHT22;1158;48.750;9.078;2023-04-15T10:28:02;15.40;79.70
2300;DHT22;1158;48.750;9.078;2023-04-15T10:30:31;15.80;79.90
2300;DHT22;1158;48.750;9.078;2023-04-15T10:32:59;15.70;80.60
2300;DHT22;1158;48.750;9.078;2023-04-15T10:35:28;15.50;79.40
2300;DHT22;1158;48.750;9.078;2023-04-15T10:37:55;15.40;81.80
2300;DHT22;1158;48.750;9.078;2023-04-15T10:40:27;15.30;82.30
2300;DHT22;1158;48.750;9.078;2023-04-15T10:42:57;15.30;81.90
2300;DHT22;1158;48.750;9.078;2023-04-15T10:45:25;15.50;83.10
2300;DHT22;1158;48.750;9.078;2023-04-15T10:47:54;15.80;82.60
2300;DHT22;1158;48.750;9.078;2023-04-15T10:50:25;16.10;81.80
2300;DHT22;1158;48.750;9.078;2023-04-15T10:52:55;15.80;82.10
2300;DHT22;1158;48.750;9.078;2023-04-15T10:55:23;16.30;81.80
2300;DHT22;1158;48.750;9.078;2023-04-15T10:57:52;16.50;80.20
2300;DHT22;1158;48.750;9.078;2023-04-15T11:00:24;16.40;80.90
2300;DHT22;1158;48.750;9.078;2023-04-15T11:02:53;15.80;82.10
2300;DHT22;1158;48.750;9.078;2023-04-15T11:05:22;15.40;81.60
2300;DHT22;1158;48.750;9.078;2023-04-15T11:08:12;15.10;82.50
2300;DHT22;1158;48.750;9.078;2023-04-15T11:10:50;15.20;81.90
2300;DHT22;1158;48.750;9.078;2023-04-15T11:13:27;15.20;83.50
2300;DHT22;1158;48.750;9.078;2023-04-15T11:15:57;15.00;83.30
2300;DHT22;1158;48.750;9.078;2023-04-15T11:18:27;15.20;83.50
2300;DHT22;1158;48.750;9.078;2023-04-15T11:20:56;15.80;83.10
2300;DHT22;1158;48.750;9.078;2023-04-15T11:23:30;16.60;81.60
2300;DHT22;1158;48.750;9.078;2023-04-15T11:25:58;16.20;80.20
2300;DHT22;1158;48.750;9.078;2023-04-15T11:28:26;15.80;79.80
2300;DHT22;1158;48.750;9.078;2023-04-15T11:30:53;15.50;79.70
2300;DHT22;1158;48.750;9.078;2023-04-15T11:33:22;16.60;81.00
2300;DHT22;1158;48.750;9.078;2023-04-15T11:35:51;17.00;76.20
2300;DHT22;1158;48.750;9.078;2023-04-15T11:38:18;16.70;78.00
2300;DHT22;1158;48.750;9.078;2023-04-15T11:40:46;16.30;83.40
2300;DHT22;1158;48.750;9.078;2023-04-15T11:43:15;15.40;86.80
2300;DHT22;1158;48.750;9.078;2023-04-15T11:45:51;14.80;89.50
2300;DHT22;1158;48.750;9.078;2023-04-15T11:48:19;14.50;85.80
2300;DHT22;1158;48.750;9.078;2023-04-15T11:50:51;14.90;86.50
2300;DHT22;1158;48.750;9.078;2023-04-15T11:53:18;16.30;82.40
2300;DHT22;1158;48.750;9.078;2023-04-15T11:55:47;17.10;79.00
2300;DHT22;1158;48.750;9.078;2023-04-15T11:58:15;17.10;77.80
2300;DHT22;1158;48.750;9.078;2023-04-15T12:00:46;17.60;78.60
2300;DHT22;1158;48.750;9.078;2023-04-15T12:03:17;17.70;75.70
2300;DHT22;1158;48.750;9.078;2023-04-15T12:06:06;18.40;75.40
2300;DHT22;1158;48.750;9.078;2023-04-15T12:08:58;18.70;71.50
2300;DHT22;1158;48.750;9.078;2023-04-15T12:14:19;18.10;70.00
2300;DHT22;1158;48.750;9.078;2023-04-15T12:16:48;17.50;72.70
2300;DHT22;1158;48.750;9.078;2023-04-15T12:19:17;18.10;73.90
2300;DHT22;1158;48.750;9.078;2023-04-15T12:21:45;18.70;74.30
2300;DHT22;1158;48.750;9.078;2023-04-15T12:24:13;18.40;75.10
2300;DHT22;1158;48.750;9.078;2023-04-15T12:26:45;18.00;73.50
2300;DHT22;1158;48.750;9.078;2023-04-15T12:29:13;17.90;73.80
2300;DHT22;1158;48.750;9.078;2023-04-15T12:31:49;17.50;74.50
2300;DHT22;1158;48.750;9.078;2023-04-15T12:34:16;16.50;71.90
2300;DHT22;1158;48.750;9.078;2023-04-15T12:36:44;16.00;73.70
2300;DHT22;1158;48.750;9.078;2023-04-15T12:39:11;15.80;75.00
2300;DHT22;1158;48.750;9.078;2023-04-15T12:41:38;15.80;81.20
2300;DHT22;1158;48.750;9.078;2023-04-15T12:44:07;15.40;83.50
2300;DHT22;1158;48.750;9.078;2023-04-15T12:46:34;14.70;84.30
2300;DHT22;1158;48.750;9.078;2023-04-15T12:49:00;14.90;85.90
2300;DHT22;1158;48.750;9.078;2023-04-15T12:51:27;15.00;86.50
2300;DHT22;1158;48.750;9.078;2023-04-15T12:53:54;15.20;87.20
2300;DHT22;1158;48.750;9.078;2023-04-15T12:56:20;15.50;87.20
2300;DHT22;1158;48.750;9.078;2023-04-15T12:58:48;15.00;86.40
2300;DHT22;1158;48.750;9.078;2023-04-15T13:01:17;14.80;85.60
2300;DHT22;1158;48.750;9.078;2023-04-15T13:03:44;14.60;85.80
2300;DHT22;1158;48.750;9.078;2023-04-15T13:06:11;13.90;85.80
2300;DHT22;1158;48.750;9.078;2023-04-15T13:08:37;13.80;85.70
2300;DHT22;1158;48.750;9.078;2023-04-15T13:11:04;13.50;84.70
2300;DHT22;1158;48.750;9.078;2023-04-15T13:13:31;13.30;85.00
2300;DHT22;1158;48.750;9.078;2023-04-15T13:15:58;13.30;87.10
2300;DHT22;1158;48.750;9.078;2023-04-15T13:18:26;13.40;86.90
2300;DHT22;1158;48.750;9.078;2023-04-15T13:20:55;13.90;87.80
2300;DHT22;1158;48.750;9.078;2023-04-15T13:23:22;14.30;86.70
2300;DHT22;1158;48.750;9.078;2023-04-15T13:25:49;14.30;85.30
2300;DHT22;1158;48.750;9.078;2023-04-15T13:28:15;13.90;85.80
2300;DHT22;1158;48.750;9.078;2023-04-15T13:30:42;13.30;86.10
2300;DHT22;1158;48.750;9.078;2023-04-15T13:33:10;13.10;88.00
2300;DHT22;1158;48.750;9.078;2023-04-15T13:35:38;13.10;87.90
2300;DHT22;1158;48.750;9.078;2023-04-15T13:38:06;12.70;86.30
2300;DHT22;1158;48.750;9.078;2023-04-15T13:40:33;12.50;85.10
2300;DHT22;1158;48.750;9.078;2023-04-15T13:43:00;12.10;85.80
2300;DHT22;1158;48.750;9.078;2023-04-15T13:45:28;12.20;86.10
2300;DHT22;1158;48.750;9.078;2023-04-15T13:47:55;12.30;85.80
2300;DHT22;1158;48.750;9.078;2023-04-15T13:50:22;12.30;84.00
2300;DHT22;1158;48.750;9.078;2023-04-15T13:52:50;12.50;85.60
2300;DHT22;1158;48.750;9.078;2023-04-15T13:55:17;12.90;83.30
2300;DHT22;1158;48.750;9.078;2023-04-15T13:57:43;13.40;83.20
2300;DHT22;1158;48.750;9.078;2023-04-15T14:00:11;13.80;82.30
2300;DHT22;1158;48.750;9.078;2023-04-15T14:02:39;14.00;82.60
2300;DHT22;1158;48.750;9.078;2023-04-15T14:05:06;13.70;80.20
2300;DHT22;1158;48.750;9.078;2023-04-15T14:07:33;13.90;81.50
2300;DHT22;1158;48.750;9.078;2023-04-15T14:10:01;14.10;81.40
2300;DHT22;1158;48.750;9.078;2023-04-15T14:12:28;14.10;79.80
2300;DHT22;1158;48.750;9.078;2023-04-15T14:14:55;13.90;80.90
2300;DHT22;1158;48.750;9.078;2023-04-15T14:17:21;13.30;79.90
2300;DHT22;1158;48.750;9.078;2023-04-15T14:19:48;13.10;78.90
2300;DHT22;1158;48.750;9.078;2023-04-15T14:22:15;12.70;75.90
2300;DHT22;1158;48.750;9.078;2023-04-15T14:24:43;12.10;73.40
2300;DHT22;1158;48.750;9.078;2023-04-15T14:27:11;11.90;73.50
2300;DHT22;1158;48.750;9.078;2023-04-15T14:29:38;12.00;74.80
2300;DHT22;1158;48.750;9.078;2023-04-15T14:32:05;12.00;77.60
2300;DHT22;1158;48.750;9.078;2023-04-15T14:34:32;12.30;75.10
2300;DHT22;1158;48.750;9.078;2023-04-15T14:36:59;12.30;76.80
2300;DHT22;1158;48.750;9.078;2023-04-15T14:39:25;12.40;76.60
2300;DHT22;1158;48.750;9.078;2023-04-15T14:41:52;12.30;76.00
2300;DHT22;1158;48.750;9.078;2023-04-15T14:44:21;12.10;76.90
2300;DHT22;1158;48.750;9.078;2023-04-15T14:46:48;11.90;77.90
2300;DHT22;1158;48.750;9.078;2023-04-15T14:49:16;11.90;78.60
2300;DHT22;1158;48.750;9.078;2023-04-15T14:51:43;11.80;79.00
2300;DHT22;1158;48.750;9.078;2023-04-15T14:54:10;11.60;80.40
2300;DHT22;1158;48.750;9.078;2023-04-15T14:56:37;11.50;80.60
2300;DHT22;1158;48.750;9.078;2023-04-15T14:59:04;11.30;81.10
2300;DHT22;1158;48.750;9.078;2023-04-15T15:01:32;11.20;82.10
2300;DHT22;1158;48.750;9.078;2023-04-15T15:03:59;11.10;83.10
2300;DHT22;1158;48.750;9.078;2023-04-15T15:06:26;11.30;88.50
2300;DHT22;1158;48.750;9.078;2023-04-15T15:08:53;11.10;86.00
2300;DHT22;1158;48.750;9.078;2023-04-15T15:11:19;11.00;86.60
2300;DHT22;1158;48.750;9.078;2023-04-15T15:13:46;10.70;88.00
2300;DHT22;1158;48.750;9.078;2023-04-15T15:16:21;10.50;89.10
2300;DHT22;1158;48.750;9.078;2023-04-15T15:18:49;10.50;90.50
2300;DHT22;1158;48.750;9.078;2023-04-15T15:21:16;10.50;90.70
2300;DHT22;1158;48.750;9.078;2023-04-15T15:23:43;10.30;90.70
2300;DHT22;1158;48.750;9.078;2023-04-15T15:26:10;10.20;91.00
2300;DHT22;1158;48.750;9.078;2023-04-15T15:28:37;10.10;90.80
2300;DHT22;1158;48.750;9.078;2023-04-15T15:31:04;10.20;91.30
2300;DHT22;1158;48.750;9.078;2023-04-15T15:33:31;10.20;91.10
2300;DHT22;1158;48.750;9.078;2023-04-15T15:35:59;10.20;90.90
2300;DHT22;1158;48.750;9.078;2023-04-15T15:38:27;10.30;90.90
2300;DHT22;1158;48.750;9.078;2023-04-15T15:40:53;10.20;90.70
2300;DHT22;1158;48.750;9.078;2023-04-15T15:43:20;10.10;91.20
2300;DHT22;1158;48.750;9.078;2023-04-15T15:45:47;10.10;91.10
2300;DHT22;1158;48.750;9.078;2023-04-15T15:48:16;10.10;91.20
2300;DHT22;1158;48.750;9.078;2023-04-15T15:50:43;10.10;91.20
2300;DHT22;1158;48.750;9.078;2023-04-15T15:53:12;10.10;93.00
2300;DHT22;1158;48.750;9.078;2023-04-15T15:55:45;10.10;91.30
2300;DHT22;1158;48.750;9.078;2023-04-15T15:58:12;10.00;90.80
2300;DHT22;1158;48.750;9.078;2023-04-15T16:00:39;10.10;90.70
2300;DHT22;1158;48.750;9.078;2023-04-15T16:03:05;10.20;90.90
2300;DHT22;1158;48.750;9.078;2023-04-15T16:05:32;10.10;90.80
2300;DHT22;1158;48.750;9.078;2023-04-15T16:07:59;10.10;91.20